sensor_id;sensor_type;location;lat;lon;timestamp;temperature;humidity
49224;DHT22;35050;51.316;5.994;2023-03-23T00:01:29;12.90;99.90
49224;DHT22;35050;51.316;5.994;2023-03-23T00:04:02;12.90;99.90
49224;DHT22;35050;51.316;5.994;2023-03-23T00:06:28;12.90;99.90
49224;DHT22;35050;51.316;5.994;2023-03-23T00:08:58;12.90;99.90
49224;DHT22;35050;51.316;5.994;2023-03-23T00:11:27;12.90;99.90
49224;DHT22;35050;51.316;5.994;2023-03-23T00:13:57;12.90;99.90
49224;DHT22;35050;51.316;5.994;2023-03-23T00:16:28;12.80;99.90
49224;DHT22;35050;51.316;5.994;2023-03-23T00:18:57;12.90;99.90
49224;DHT22;35050;51.316;5.994;2023-03-23T00:21:25;12.90;99.90
49224;DHT22;35050;51.316;5.994;2023-03-23T00:24:05;12.90;99.90
49224;DHT22;35050;51.316;5.994;2023-03-23T00:26:32;12.90;99.90
49224;DHT22;35050;51.316;5.994;2023-03-23T00:29:00;12.80;99.90
49224;DHT22;35050;51.316;5.994;2023-03-23T00:31:26;12.90;99.90
49224;DHT22;35050;51.316;5.994;2023-03-23T00:34:01;12.90;99.90
49224;DHT22;35050;51.316;5.994;2023-03-23T00:36:30;12.90;99.90
49224;DHT22;35050;51.316;5.994;2023-03-23T00:38:56;12.90;99.90
49224;DHT22;35050;51.316;5.994;2023-03-23T00:41:25;12.90;99.90
49224;DHT22;35050;51.316;5.994;2023-03-23T00:43:55;12.90;99.90
49224;DHT22;35050;51.316;5.994;2023-03-23T00:46:21;12.90;99.90
49224;DHT22;35050;51.316;5.994;2023-03-23T00:48:48;12.90;99.90
49224;DHT22;35050;51.316;5.994;2023-03-23T00:51:13;12.90;99.90
49224;DHT22;35050;51.316;5.994;2023-03-23T00:53:40;12.90;99.90
49224;DHT22;35050;51.316;5.994;2023-03-23T00:56:07;12.90;99.90
49224;DHT22;35050;51.316;5.994;2023-03-23T00:58:33;12.90;99.90
49224;DHT22;35050;51.316;5.994;2023-03-23T01:00:58;12.90;99.90
49224;DHT22;35050;51.316;5.994;2023-03-23T01:03:24;12.90;99.90
49224;DHT22;35050;51.316;5.994;2023-03-23T01:05:51;12.90;99.90
49224;DHT22;35050;51.316;5.994;2023-03-23T01:08:18;12.90;99.90
49224;DHT22;35050;51.316;5.994;2023-03-23T01:10:46;12.90;99.90
49224;DHT22;35050;51.316;5.994;2023-03-23T01:13:12;12.90;99.90
49224;DHT22;35050;51.316;5.994;2023-03-23T01:15:38;12.90;99.90
49224;DHT22;35050;51.316;5.994;2023-03-23T01:18:04;12.80;99.90
49224;DHT22;35050;51.316;5.994;2023-03-23T01:20:30;12.90;99.90
49224;DHT22;35050;51.316;5.994;2023-03-23T01:23:00;12.90;99.90
49224;DHT22;35050;51.316;5.994;2023-03-23T01:25:35;12.90;99.90
49224;DHT22;35050;51.316;5.994;2023-03-23T01:28:02;12.80;99.90
49224;DHT22;35050;51.316;5.994;2023-03-23T01:30:27;12.90;99.90
49224;DHT22;35050;51.316;5.994;2023-03-23T01:32:54;12.90;99.90
49224;DHT22;35050;51.316;5.994;2023-03-23T01:35:21;12.90;99.90
49224;DHT22;35050;51.316;5.994;2023-03-23T01:37:47;12.90;99.90
49224;DHT22;35050;51.316;5.994;2023-03-23T01:40:13;12.90;99.90
49224;DHT22;35050;51.316;5.994;2023-03-23T01:42:39;12.90;99.90
49224;DHT22;35050;51.316;5.994;2023-03-23T01:45:22;12.90;99.90
49224;DHT22;35050;51.316;5.994;2023-03-23T01:47:50;12.90;99.90
49224;DHT22;35050;51.316;5.994;2023-03-23T01:50:19;12.90;99.90
49224;DHT22;35050;51.316;5.994;2023-03-23T01:52:48;12.90;99.90
49224;DHT22;35050;51.316;5.994;2023-03-23T01:55:14;12.90;99.90
49224;DHT22;35050;51.316;5.994;2023-03-23T01:57:41;12.80;99.90
49224;DHT22;35050;51.316;5.994;2023-03-23T02:00:08;12.90;99.90
49224;DHT22;35050;51.316;5.994;2023-03-23T02:02:41;12.80;99.90
49224;DHT22;35050;51.316;5.994;2023-03-23T02:05:11;12.90;99.90
49224;DHT22;35050;51.316;5.994;2023-03-23T02:07:38;12.90;99.90
49224;DHT22;35050;51.316;5.994;2023-03-23T02:10:04;12.80;99.90
49224;DHT22;35050;51.316;5.994;2023-03-23T02:12:30;12.80;99.90
49224;DHT22;35050;51.316;5.994;2023-03-23T02:14:56;12.80;99.90
49224;DHT22;35050;51.316;5.994;2023-03-23T02:20:48;12.80;99.90
49224;DHT22;35050;51.316;5.994;2023-03-23T02:26:03;12.80;99.90
49224;DHT22;35050;51.316;5.994;2023-03-23T02:34:09;12.80;99.90
49224;DHT22;35050;51.316;5.994;2023-03-23T02:36:44;12.80;99.90
49224;DHT22;35050;51.316;5.994;2023-03-23T02:39:24;12.80;99.90
49224;DHT22;35050;51.316;5.994;2023-03-23T02:42:18;12.80;99.90
49224;DHT22;35050;51.316;5.994;2023-03-23T02:44:46;12.70;99.90
49224;DHT22;35050;51.316;5.994;2023-03-23T02:47:20;12.70;99.90
49224;DHT22;35050;51.316;5.994;2023-03-23T02:49:50;12.70;99.90
49224;DHT22;35050;51.316;5.994;2023-03-23T02:52:24;12.70;99.90
49224;DHT22;35050;51.316;5.994;2023-03-23T02:54:51;12.80;99.90
49224;DHT22;35050;51.316;5.994;2023-03-23T02:57:18;12.70;99.90
49224;DHT22;35050;51.316;5.994;2023-03-23T02:59:45;12.70;99.90
49224;DHT22;35050;51.316;5.994;2023-03-23T03:02:17;12.70;99.90
49224;DHT22;35050;51.316;5.994;2023-03-23T03:07:49;12.80;99.90
49224;DHT22;35050;51.316;5.994;2023-03-23T03:13:44;12.70;99.90
49224;DHT22;35050;51.316;5.994;2023-03-23T03:16:27;12.70;99.90
49224;DHT22;35050;51.316;5.994;2023-03-23T03:21:36;12.70;99.90
49224;DHT22;35050;51.316;5.994;2023-03-23T03:24:05;12.80;99.90
49224;DHT22;35050;51.316;5.994;2023-03-23T03:26:38;12.80;99.90
49224;DHT22;35050;51.316;5.994;2023-03-23T03:29:05;12.70;99.90
49224;DHT22;35050;51.316;5.994;2023-03-23T03:31:36;12.80;99.90
49224;DHT22;35050;51.316;5.994;2023-03-23T03:34:03;12.80;99.90
49224;DHT22;35050;51.316;5.994;2023-03-23T03:36:32;12.70;99.90
49224;DHT22;35050;51.316;5.994;2023-03-23T03:39:04;12.80;99.90
49224;DHT22;35050;51.316;5.994;2023-03-23T03:41:33;12.80;99.90
49224;DHT22;35050;51.316;5.994;2023-03-23T03:43:59;12.70;99.90
49224;DHT22;35050;51.316;5.994;2023-03-23T03:46:25;12.80;99.90
49224;DHT22;35050;51.316;5.994;2023-03-23T03:48:55;12.80;99.90
49224;DHT22;35050;51.316;5.994;2023-03-23T03:51:22;12.80;99.90
49224;DHT22;35050;51.316;5.994;2023-03-23T03:53:48;12.80;99.90
49224;DHT22;35050;51.316;5.994;2023-03-23T03:56:13;12.80;99.90
49224;DHT22;35050;51.316;5.994;2023-03-23T03:58:39;12.80;99.90
49224;DHT22;35050;51.316;5.994;2023-03-23T04:01:08;12.80;99.90
49224;DHT22;35050;51.316;5.994;2023-03-23T04:03:36;12.80;99.90
49224;DHT22;35050;51.316;5.994;2023-03-23T04:06:02;12.80;99.90
49224;DHT22;35050;51.316;5.994;2023-03-23T04:08:28;12.80;99.90
49224;DHT22;35050;51.316;5.994;2023-03-23T04:10:54;12.80;99.90
49224;DHT22;35050;51.316;5.994;2023-03-23T04:13:20;12.90;99.90
49224;DHT22;35050;51.316;5.994;2023-03-23T04:15:47;12.80;99.90
49224;DHT22;35050;51.316;5.994;2023-03-23T04:18:13;12.80;99.90
49224;DHT22;35050;51.316;5.994;2023-03-23T04:20:41;12.80;99.90
49224;DHT22;35050;51.316;5.994;2023-03-23T04:23:07;12.80;99.90
49224;DHT22;35050;51.316;5.994;2023-03-23T04:25:33;12.80;99.90
49224;DHT22;35050;51.316;5.994;2023-03-23T04:27:59;12.80;99.90
49224;DHT22;35050;51.316;5.994;2023-03-23T04:30:27;12.80;99.90
49224;DHT22;35050;51.316;5.994;2023-03-23T04:32:55;12.80;99.90
49224;DHT22;35050;51.316;5.994;2023-03-23T04:35:23;12.80;99.90
49224;DHT22;35050;51.316;5.994;2023-03-23T04:37:53;12.80;99.90
49224;DHT22;35050;51.316;5.994;2023-03-23T04:40:22;12.90;99.90
49224;DHT22;35050;51.316;5.994;2023-03-23T04:42:48;12.80;99.90
49224;DHT22;35050;51.316;5.994;2023-03-23T04:45:20;12.80;99.90
49224;DHT22;35050;51.316;5.994;2023-03-23T04:47:48;12.80;99.90
49224;DHT22;35050;51.316;5.994;2023-03-23T04:50:20;12.80;99.90
49224;DHT22;35050;51.316;5.994;2023-03-23T04:52:47;12.90;99.90
49224;DHT22;35050;51.316;5.994;2023-03-23T04:55:13;12.80;99.90
49224;DHT22;35050;51.316;5.994;2023-03-23T04:57:39;12.80;99.90
49224;DHT22;35050;51.316;5.994;2023-03-23T05:00:05;12.90;99.90
49224;DHT22;35050;51.316;5.994;2023-03-23T05:02:37;12.90;99.90
49224;DHT22;35050;51.316;5.994;2023-03-23T05:05:06;12.90;99.90
49224;DHT22;35050;51.316;5.994;2023-03-23T05:07:32;12.90;99.90
49224;DHT22;35050;51.316;5.994;2023-03-23T05:09:57;12.90;99.90
49224;DHT22;35050;51.316;5.994;2023-03-23T05:12:23;12.90;99.90
49224;DHT22;35050;51.316;5.994;2023-03-23T05:14:49;12.90;99.90
49224;DHT22;35050;51.316;5.994;2023-03-23T05:17:15;12.80;99.90
49224;DHT22;35050;51.316;5.994;2023-03-23T05:19:43;12.90;99.90
49224;DHT22;35050;51.316;5.994;2023-03-23T05:22:14;12.90;99.90
49224;DHT22;35050;51.316;5.994;2023-03-23T05:24:40;12.90;99.90
49224;DHT22;35050;51.316;5.994;2023-03-23T05:27:05;12.90;99.90
49224;DHT22;35050;51.316;5.994;2023-03-23T05:29:34;12.90;99.90
49224;DHT22;35050;51.316;5.994;2023-03-23T05:32:02;12.90;99.90
49224;DHT22;35050;51.316;5.994;2023-03-23T05:34:29;12.90;99.90
49224;DHT22;35050;51.316;5.994;2023-03-23T05:36:58;12.90;99.90
49224;DHT22;35050;51.316;5.994;2023-03-23T05:39:25;12.90;99.90
49224;DHT22;35050;51.316;5.994;2023-03-23T05:41:50;12.90;99.90
49224;DHT22;35050;51.316;5.994;2023-03-23T05:44:17;12.90;99.90
49224;DHT22;35050;51.316;5.994;2023-03-23T05:46:43;12.90;99.90
49224;DHT22;35050;51.316;5.994;2023-03-23T05:49:09;12.90;99.90
49224;DHT22;35050;51.316;5.994;2023-03-23T05:51:34;12.90;99.90
49224;DHT22;35050;51.316;5.994;2023-03-23T05:54:02;12.90;99.90
49224;DHT22;35050;51.316;5.994;2023-03-23T05:56:28;12.90;99.90
49224;DHT22;35050;51.316;5.994;2023-03-23T05:58:55;12.90;99.90
49224;DHT22;35050;51.316;5.994;2023-03-23T06:01:21;12.80;99.90
49224;DHT22;35050;51.316;5.994;2023-03-23T06:03:47;12.90;99.90
49224;DHT22;35050;51.316;5.994;2023-03-23T06:06:14;12.90;99.90
49224;DHT22;35050;51.316;5.994;2023-03-23T06:08:40;12.90;99.90
49224;DHT22;35050;51.316;5.994;2023-03-23T06:11:05;12.90;99.90
49224;DHT22;35050;51.316;5.994;2023-03-23T06:13:31;12.90;99.90
49224;DHT22;35050;51.316;5.994;2023-03-23T06:15:57;12.80;99.90
49224;DHT22;35050;51.316;5.994;2023-03-23T06:18:23;12.80;99.90
49224;DHT22;35050;51.316;5.994;2023-03-23T06:20:50;12.80;99.90
49224;DHT22;35050;51.316;5.994;2023-03-23T06:23:16;12.80;99.90
49224;DHT22;35050;51.316;5.994;2023-03-23T06:25:43;12.80;99.90
49224;DHT22;35050;51.316;5.994;2023-03-23T06:28:09;12.90;99.90
49224;DHT22;35050;51.316;5.994;2023-03-23T06:30:36;12.90;99.90
49224;DHT22;35050;51.316;5.994;2023-03-23T06:33:02;12.90;99.90
49224;DHT22;35050;51.316;5.994;2023-03-23T06:35:31;12.90;99.90
49224;DHT22;35050;51.316;5.994;2023-03-23T06:37:57;12.90;99.90
49224;DHT22;35050;51.316;5.994;2023-03-23T06:40:27;12.90;99.90
49224;DHT22;35050;51.316;5.994;2023-03-23T06:42:53;12.90;99.90
49224;DHT22;35050;51.316;5.994;2023-03-23T06:45:19;12.90;99.90
49224;DHT22;35050;51.316;5.994;2023-03-23T06:47:45;12.90;99.90
49224;DHT22;35050;51.316;5.994;2023-03-23T06:50:15;13.00;99.90
49224;DHT22;35050;51.316;5.994;2023-03-23T06:52:40;13.00;99.90
49224;DHT22;35050;51.316;5.994;2023-03-23T06:55:07;12.90;99.90
49224;DHT22;35050;51.316;5.994;2023-03-23T06:57:32;12.90;99.90
49224;DHT22;35050;51.316;5.994;2023-03-23T06:59:58;13.00;99.90
49224;DHT22;35050;51.316;5.994;2023-03-23T07:02:24;13.00;99.90
49224;DHT22;35050;51.316;5.994;2023-03-23T07:04:51;13.10;99.90
49224;DHT22;35050;51.316;5.994;2023-03-23T07:07:16;13.10;99.90
49224;DHT22;35050;51.316;5.994;2023-03-23T07:09:44;13.10;99.90
49224;DHT22;35050;51.316;5.994;2023-03-23T07:12:10;13.10;99.90
49224;DHT22;35050;51.316;5.994;2023-03-23T07:14:36;13.20;99.90
49224;DHT22;35050;51.316;5.994;2023-03-23T07:17:03;13.20;99.90
49224;DHT22;35050;51.316;5.994;2023-03-23T07:19:29;13.20;99.90
49224;DHT22;35050;51.316;5.994;2023-03-23T07:21:55;13.10;99.90
49224;DHT22;35050;51.316;5.994;2023-03-23T07:24:22;13.20;99.90
49224;DHT22;35050;51.316;5.994;2023-03-23T07:26:47;13.20;99.90
49224;DHT22;35050;51.316;5.994;2023-03-23T07:29:13;13.20;99.90
49224;DHT22;35050;51.316;5.994;2023-03-23T07:31:39;13.10;99.90
49224;DHT22;35050;51.316;5.994;2023-03-23T07:34:04;13.20;99.90
49224;DHT22;35050;51.316;5.994;2023-03-23T07:36:31;13.20;99.90
49224;DHT22;35050;51.316;5.994;2023-03-23T07:38:58;13.20;99.90
49224;DHT22;35050;51.316;5.994;2023-03-23T07:41:24;13.20;99.90
49224;DHT22;35050;51.316;5.994;2023-03-23T07:43:49;13.20;99.90
49224;DHT22;35050;51.316;5.994;2023-03-23T07:46:15;13.20;99.90
49224;DHT22;35050;51.316;5.994;2023-03-23T07:48:41;13.20;99.90
49224;DHT22;35050;51.316;5.994;2023-03-23T07:51:07;13.30;99.90
49224;DHT22;35050;51.316;5.994;2023-03-23T07:53:33;13.30;99.90
49224;DHT22;35050;51.316;5.994;2023-03-23T07:55:58;13.30;99.90
49224;DHT22;35050;51.316;5.994;2023-03-23T07:58:24;13.30;99.90
49224;DHT22;35050;51.316;5.994;2023-03-23T08:00:52;13.30;99.90
49224;DHT22;35050;51.316;5.994;2023-03-23T08:03:18;13.40;99.90
49224;DHT22;35050;51.316;5.994;2023-03-23T08:05:43;13.40;99.90
49224;DHT22;35050;51.316;5.994;2023-03-23T08:08:10;13.40;99.90
49224;DHT22;35050;51.316;5.994;2023-03-23T08:10:36;13.50;99.90
49224;DHT22;35050;51.316;5.994;2023-03-23T08:13:02;13.50;99.90
49224;DHT22;35050;51.316;5.994;2023-03-23T08:15:28;13.70;99.90
49224;DHT22;35050;51.316;5.994;2023-03-23T08:17:54;13.70;99.90
49224;DHT22;35050;51.316;5.994;2023-03-23T08:20:20;13.70;99.90
49224;DHT22;35050;51.316;5.994;2023-03-23T08:22:53;13.70;99.90
49224;DHT22;35050;51.316;5.994;2023-03-23T08:25:21;13.60;99.90
49224;DHT22;35050;51.316;5.994;2023-03-23T08:27:47;13.50;99.90
49224;DHT22;35050;51.316;5.994;2023-03-23T08:30:15;13.50;99.90
49224;DHT22;35050;51.316;5.994;2023-03-23T08:32:42;13.50;99.90
49224;DHT22;35050;51.316;5.994;2023-03-23T08:35:09;13.50;99.90
49224;DHT22;35050;51.316;5.994;2023-03-23T08:37:36;13.40;99.90
49224;DHT22;35050;51.316;5.994;2023-03-23T08:40:03;13.30;99.90
49224;DHT22;35050;51.316;5.994;2023-03-23T08:42:39;12.80;99.90
49224;DHT22;35050;51.316;5.994;2023-03-23T08:45:06;12.30;99.90
49224;DHT22;35050;51.316;5.994;2023-03-23T08:47:34;12.20;99.90
49224;DHT22;35050;51.316;5.994;2023-03-23T08:50:00;12.10;99.90
49224;DHT22;35050;51.316;5.994;2023-03-23T08:52:27;11.90;99.90
49224;DHT22;35050;51.316;5.994;2023-03-23T08:54:54;12.00;99.90
49224;DHT22;35050;51.316;5.994;2023-03-23T08:57:20;12.00;99.90
49224;DHT22;35050;51.316;5.994;2023-03-23T08:59:45;11.80;99.90
49224;DHT22;35050;51.316;5.994;2023-03-23T09:02:12;11.80;99.90
49224;DHT22;35050;51.316;5.994;2023-03-23T09:04:38;11.70;99.90
49224;DHT22;35050;51.316;5.994;2023-03-23T09:07:05;11.80;99.90
49224;DHT22;35050;51.316;5.994;2023-03-23T09:09:31;11.50;99.90
49224;DHT22;35050;51.316;5.994;2023-03-23T09:11:59;11.60;99.90
49224;DHT22;35050;51.316;5.994;2023-03-23T09:14:25;11.60;99.90
49224;DHT22;35050;51.316;5.994;2023-03-23T09:16:50;11.60;99.90
49224;DHT22;35050;51.316;5.994;2023-03-23T09:19:16;11.50;99.90
49224;DHT22;35050;51.316;5.994;2023-03-23T09:21:43;11.70;99.90
49224;DHT22;35050;51.316;5.994;2023-03-23T09:24:11;11.70;99.90
49224;DHT22;35050;51.316;5.994;2023-03-23T09:26:36;11.40;99.90
49224;DHT22;35050;51.316;5.994;2023-03-23T09:29:02;11.60;99.90
49224;DHT22;35050;51.316;5.994;2023-03-23T09:31:28;11.60;99.90
49224;DHT22;35050;51.316;5.994;2023-03-23T09:33:57;11.70;99.90
49224;DHT22;35050;51.316;5.994;2023-03-23T09:36:24;11.70;99.90
49224;DHT22;35050;51.316;5.994;2023-03-23T09:38:51;11.40;99.90
49224;DHT22;35050;51.316;5.994;2023-03-23T09:43:59;11.60;99.90
49224;DHT22;35050;51.316;5.994;2023-03-23T09:52:20;11.60;99.90
49224;DHT22;35050;51.316;5.994;2023-03-23T09:54:49;11.50;99.90
49224;DHT22;35050;51.316;5.994;2023-03-23T09:57:18;11.60;99.90
49224;DHT22;35050;51.316;5.994;2023-03-23T10:00:14;11.80;99.90
49224;DHT22;35050;51.316;5.994;2023-03-23T10:03:13;11.80;99.90
49224;DHT22;35050;51.316;5.994;2023-03-23T10:05:51;11.70;99.90
49224;DHT22;35050;51.316;5.994;2023-03-23T10:08:20;11.60;99.90
49224;DHT22;35050;51.316;5.994;2023-03-23T10:16:21;11.80;99.90
49224;DHT22;35050;51.316;5.994;2023-03-23T10:21:28;12.00;99.90
49224;DHT22;35050;51.316;5.994;2023-03-23T10:24:01;12.10;99.90
49224;DHT22;35050;51.316;5.994;2023-03-23T10:26:59;12.00;99.90
49224;DHT22;35050;51.316;5.994;2023-03-23T10:30:19;12.00;99.90
49224;DHT22;35050;51.316;5.994;2023-03-23T10:33:13;11.90;99.90
49224;DHT22;35050;51.316;5.994;2023-03-23T10:38:23;12.10;99.90
49224;DHT22;35050;51.316;5.994;2023-03-23T10:40:52;12.00;99.90
49224;DHT22;35050;51.316;5.994;2023-03-23T10:43:19;11.90;99.90
49224;DHT22;35050;51.316;5.994;2023-03-23T10:45:50;12.00;99.90
49224;DHT22;35050;51.316;5.994;2023-03-23T10:48:30;12.00;99.90
49224;DHT22;35050;51.316;5.994;2023-03-23T10:51:00;11.70;99.90
49224;DHT22;35050;51.316;5.994;2023-03-23T10:53:39;11.90;99.90
49224;DHT22;35050;51.316;5.994;2023-03-23T10:56:25;12.10;99.90
49224;DHT22;35050;51.316;5.994;2023-03-23T10:58:53;12.10;99.90
49224;DHT22;35050;51.316;5.994;2023-03-23T11:01:27;11.90;99.90
49224;DHT22;35050;51.316;5.994;2023-03-23T11:03:54;12.20;99.90
49224;DHT22;35050;51.316;5.994;2023-03-23T11:06:27;12.20;99.90
49224;DHT22;35050;51.316;5.994;2023-03-23T11:09:14;12.20;99.90
49224;DHT22;35050;51.316;5.994;2023-03-23T11:11:47;12.40;99.90
49224;DHT22;35050;51.316;5.994;2023-03-23T11:14:26;12.40;99.90
49224;DHT22;35050;51.316;5.994;2023-03-23T11:17:18;12.60;99.90
49224;DHT22;35050;51.316;5.994;2023-03-23T11:19:45;12.60;99.90
49224;DHT22;35050;51.316;5.994;2023-03-23T11:22:27;12.50;99.90
49224;DHT22;35050;51.316;5.994;2023-03-23T11:25:00;12.50;99.90
49224;DHT22;35050;51.316;5.994;2023-03-23T11:27:27;13.20;99.90
49224;DHT22;35050;51.316;5.994;2023-03-23T11:29:55;13.00;99.90
49224;DHT22;35050;51.316;5.994;2023-03-23T11:32:28;13.00;99.90
49224;DHT22;35050;51.316;5.994;2023-03-23T11:34:58;13.20;99.90
49224;DHT22;35050;51.316;5.994;2023-03-23T11:37:42;13.40;99.90
49224;DHT22;35050;51.316;5.994;2023-03-23T11:42:49;13.10;99.90
49224;DHT22;35050;51.316;5.994;2023-03-23T11:45:35;12.90;99.90
49224;DHT22;35050;51.316;5.994;2023-03-23T11:50:31;12.90;99.90
49224;DHT22;35050;51.316;5.994;2023-03-23T11:53:13;13.00;99.90
49224;DHT22;35050;51.316;5.994;2023-03-23T11:58:17;13.30;99.90
49224;DHT22;35050;51.316;5.994;2023-03-23T12:06:27;13.60;99.90
49224;DHT22;35050;51.316;5.994;2023-03-23T12:20:24;13.90;99.90
49224;DHT22;35050;51.316;5.994;2023-03-23T12:28:11;14.30;99.90
49224;DHT22;35050;51.316;5.994;2023-03-23T12:31:25;14.40;99.90
49224;DHT22;35050;51.316;5.994;2023-03-23T12:34:07;14.60;99.90
49224;DHT22;35050;51.316;5.994;2023-03-23T12:45:00;15.90;99.90
49224;DHT22;35050;51.316;5.994;2023-03-23T12:47:42;15.60;99.90
49224;DHT22;35050;51.316;5.994;2023-03-23T12:55:32;16.60;99.90
49224;DHT22;35050;51.316;5.994;2023-03-23T12:58:09;16.60;99.90
49224;DHT22;35050;51.316;5.994;2023-03-23T13:01:09;16.70;99.90
49224;DHT22;35050;51.316;5.994;2023-03-23T13:08:53;16.10;99.90
49224;DHT22;35050;51.316;5.994;2023-03-23T13:11:39;15.90;99.90
49224;DHT22;35050;51.316;5.994;2023-03-23T13:22:35;15.80;99.90
49224;DHT22;35050;51.316;5.994;2023-03-23T13:25:07;15.50;99.90
49224;DHT22;35050;51.316;5.994;2023-03-23T13:27:34;15.40;99.90
49224;DHT22;35050;51.316;5.994;2023-03-23T13:30:00;15.40;99.90
49224;DHT22;35050;51.316;5.994;2023-03-23T13:32:39;15.10;99.90
49224;DHT22;35050;51.316;5.994;2023-03-23T13:35:13;15.10;99.90
49224;DHT22;35050;51.316;5.994;2023-03-23T13:37:48;15.10;99.90
49224;DHT22;35050;51.316;5.994;2023-03-23T13:40:26;14.90;99.90
49224;DHT22;35050;51.316;5.994;2023-03-23T13:42:55;15.00;99.90
49224;DHT22;35050;51.316;5.994;2023-03-23T13:45:42;15.10;99.90
49224;DHT22;35050;51.316;5.994;2023-03-23T13:50:54;15.30;99.90
49224;DHT22;35050;51.316;5.994;2023-03-23T13:53:42;15.60;99.90
49224;DHT22;35050;51.316;5.994;2023-03-23T13:56:32;15.70;99.90
49224;DHT22;35050;51.316;5.994;2023-03-23T14:01:53;15.90;99.90
49224;DHT22;35050;51.316;5.994;2023-03-23T14:04:21;15.80;99.90
49224;DHT22;35050;51.316;5.994;2023-03-23T14:06:49;15.40;99.90
49224;DHT22;35050;51.316;5.994;2023-03-23T14:12:02;15.50;99.90
49224;DHT22;35050;51.316;5.994;2023-03-23T14:14:42;15.40;99.90
49224;DHT22;35050;51.316;5.994;2023-03-23T14:17:26;15.40;99.90
49224;DHT22;35050;51.316;5.994;2023-03-23T14:19:55;15.80;99.90
49224;DHT22;35050;51.316;5.994;2023-03-23T14:22:35;16.00;99.90
49224;DHT22;35050;51.316;5.994;2023-03-23T14:25:16;16.00;99.90
49224;DHT22;35050;51.316;5.994;2023-03-23T14:27:43;16.20;99.90
49224;DHT22;35050;51.316;5.994;2023-03-23T14:30:18;16.10;99.90
49224;DHT22;35050;51.316;5.994;2023-03-23T14:32:44;16.50;99.90
49224;DHT22;35050;51.316;5.994;2023-03-23T14:35:27;16.60;99.90
49224;DHT22;35050;51.316;5.994;2023-03-23T14:37:54;16.40;99.90
49224;DHT22;35050;51.316;5.994;2023-03-23T14:40:21;16.10;99.90
49224;DHT22;35050;51.316;5.994;2023-03-23T14:42:47;16.40;99.90
49224;DHT22;35050;51.316;5.994;2023-03-23T14:45:17;16.40;99.90
49224;DHT22;35050;51.316;5.994;2023-03-23T14:47:50;16.60;99.90
49224;DHT22;35050;51.316;5.994;2023-03-23T14:53:09;17.10;99.90
49224;DHT22;35050;51.316;5.994;2023-03-23T14:55:36;17.10;99.90
49224;DHT22;35050;51.316;5.994;2023-03-23T14:58:06;17.10;99.90
49224;DHT22;35050;51.316;5.994;2023-03-23T15:00:40;17.30;99.90
49224;DHT22;35050;51.316;5.994;2023-03-23T15:03:13;17.00;99.90
49224;DHT22;35050;51.316;5.994;2023-03-23T15:05:55;17.20;99.90
49224;DHT22;35050;51.316;5.994;2023-03-23T15:08:27;17.40;99.90
49224;DHT22;35050;51.316;5.994;2023-03-23T15:13:45;16.70;99.90
49224;DHT22;35050;51.316;5.994;2023-03-23T15:16:25;16.70;99.90
49224;DHT22;35050;51.316;5.994;2023-03-23T15:19:02;16.30;99.90
49224;DHT22;35050;51.316;5.994;2023-03-23T15:22:13;16.30;99.90
49224;DHT22;35050;51.316;5.994;2023-03-23T15:24:41;16.50;99.90
49224;DHT22;35050;51.316;5.994;2023-03-23T15:27:17;16.40;99.90
49224;DHT22;35050;51.316;5.994;2023-03-23T15:29:54;16.30;99.90
49224;DHT22;35050;51.316;5.994;2023-03-23T15:32:26;16.30;99.90
49224;DHT22;35050;51.316;5.994;2023-03-23T15:34:52;15.80;99.90
49224;DHT22;35050;51.316;5.994;2023-03-23T15:37:22;16.10;99.90
49224;DHT22;35050;51.316;5.994;2023-03-23T15:39:49;15.90;99.90
49224;DHT22;35050;51.316;5.994;2023-03-23T15:42:30;15.70;99.90
49224;DHT22;35050;51.316;5.994;2023-03-23T15:47:36;15.60;99.90
49224;DHT22;35050;51.316;5.994;2023-03-23T15:50:11;15.60;99.90
49224;DHT22;35050;51.316;5.994;2023-03-23T15:52:37;15.80;99.90
49224;DHT22;35050;51.316;5.994;2023-03-23T15:55:03;16.30;99.90
49224;DHT22;35050;51.316;5.994;2023-03-23T15:57:29;16.40;99.90
49224;DHT22;35050;51.316;5.994;2023-03-23T15:59:54;16.60;99.90
49224;DHT22;35050;51.316;5.994;2023-03-23T16:02:22;16.50;99.90
49224;DHT22;35050;51.316;5.994;2023-03-23T16:04:49;16.40;99.90
49224;DHT22;35050;51.316;5.994;2023-03-23T16:07:18;16.30;99.90
49224;DHT22;35050;51.316;5.994;2023-03-23T16:09:45;16.20;99.90
49224;DHT22;35050;51.316;5.994;2023-03-23T16:12:11;16.20;99.90
49224;DHT22;35050;51.316;5.994;2023-03-23T16:14:38;16.30;99.90
49224;DHT22;35050;51.316;5.994;2023-03-23T16:17:04;16.30;99.90
49224;DHT22;35050;51.316;5.994;2023-03-23T16:19:30;16.20;99.90
49224;DHT22;35050;51.316;5.994;2023-03-23T16:21:56;16.00;99.90
49224;DHT22;35050;51.316;5.994;2023-03-23T16:24:22;16.10;99.90
49224;DHT22;35050;51.316;5.994;2023-03-23T16:26:48;15.90;99.90
49224;DHT22;35050;51.316;5.994;2023-03-23T16:29:15;16.00;99.90
49224;DHT22;35050;51.316;5.994;2023-03-23T16:31:41;16.00;99.90
49224;DHT22;35050;51.316;5.994;2023-03-23T16:34:07;15.90;99.90
49224;DHT22;35050;51.316;5.994;2023-03-23T16:36:33;15.80;99.90
49224;DHT22;35050;51.316;5.994;2023-03-23T16:38:59;15.90;99.90
49224;DHT22;35050;51.316;5.994;2023-03-23T16:41:25;15.90;99.90
49224;DHT22;35050;51.316;5.994;2023-03-23T16:43:50;15.80;99.90
49224;DHT22;35050;51.316;5.994;2023-03-23T16:46:16;15.70;99.90
49224;DHT22;35050;51.316;5.994;2023-03-23T16:48:42;15.70;99.90
49224;DHT22;35050;51.316;5.994;2023-03-23T16:51:08;15.90;99.90
49224;DHT22;35050;51.316;5.994;2023-03-23T16:53:34;15.90;99.90
49224;DHT22;35050;51.316;5.994;2023-03-23T16:56:00;15.70;99.90
49224;DHT22;35050;51.316;5.994;2023-03-23T16:58:26;15.90;99.90
49224;DHT22;35050;51.316;5.994;2023-03-23T17:00:52;15.80;99.90
49224;DHT22;35050;51.316;5.994;2023-03-23T17:03:19;15.90;99.90
49224;DHT22;35050;51.316;5.994;2023-03-23T17:05:47;15.70;99.90
49224;DHT22;35050;51.316;5.994;2023-03-23T17:08:13;15.50;99.90
49224;DHT22;35050;51.316;5.994;2023-03-23T17:10:39;15.60;99.90
49224;DHT22;35050;51.316;5.994;2023-03-23T17:13:05;15.50;99.90
49224;DHT22;35050;51.316;5.994;2023-03-23T17:15:31;15.50;99.90
49224;DHT22;35050;51.316;5.994;2023-03-23T17:17:57;15.40;99.90
49224;DHT22;35050;51.316;5.994;2023-03-23T17:20:22;15.40;99.90
49224;DHT22;35050;51.316;5.994;2023-03-23T17:22:49;15.30;99.90
49224;DHT22;35050;51.316;5.994;2023-03-23T17:25:15;15.20;99.90
49224;DHT22;35050;51.316;5.994;2023-03-23T17:27:40;15.10;99.90
49224;DHT22;35050;51.316;5.994;2023-03-23T17:30:08;15.10;99.90
49224;DHT22;35050;51.316;5.994;2023-03-23T17:32:34;15.00;99.90
49224;DHT22;35050;51.316;5.994;2023-03-23T17:35:01;15.00;99.90
49224;DHT22;35050;51.316;5.994;2023-03-23T17:37:26;15.00;99.90
49224;DHT22;35050;51.316;5.994;2023-03-23T17:39:52;15.00;99.90